ROMMA est une association bénévole à but non lucratif. Votre soutien est indispensable : ADHERER à ROMMA ou FAIRE un DON

Chindrieux - (73, Savoie)

Chautagne (260 m)   Longitude: 05°50' E   Latitude: 45°49' N Station partenaire n°74
 

Détail journalier du     <<     >>

Température Precipitation Humidité Pression Vent Dir Rafale Dir. rafale Ensol.
Heure (°C) (mm) (%) (hPa) (km/h) (km/h) (min)
01:00 4.706610162ONO6ONO0
02:00 3.806910162NO5NO0
03:00 3.107210162NNO8NNO0
04:00 3.107310163N8N0
05:00 2.907310163N6N0
06:00 2.907010163N6N0
07:00 1.807210163N8N0
08:00 1.607710165N13N0
09:00 0.908110163NNO8NNO0
10:00 3.306810165NNO13NNO0
11:00 6.904910169NNO21NO40
12:00 8.204710167NNO16NNO60
13:00 9.604110156NNO16NNO60
14:00 11.104210155OSO16NO60
15:00 11.803710157SSE18SO50
16:00 12.302710156SSE15SE40
17:00 12.903310158NO27N60
18:00 12.8038101510N26NNO50
19:00 11.8042101513NNO26N50
20:00 10.1050101711N27N10
21:00 8.4058101714NE35ENE0
22:00 7.7059101814NE37ENE0
23:00 6.8063101813N32NE0
minuit 6.6065101910NNO31NNO0

Graphique du 14-04-2019

 

Serveur OMMA